首页
METAR-TAF:

METAR-TAF

机场 :

蒂米什瓦拉, 罗马尼亚

纬度: 45-46N, 经度: 021-15E, 海拔: 86米

当前天气观测

该预报发布于26分钟前的07:30 UTC
风速4节,风向西北
温度 6°C
湿度 87%
气压 1011 hPa
能见度10公里或以上
1500米以下无云,无积雨云

METAR: LRTR 100730Z 31004KT CAVOK 06/04 Q1011 NOSIG

时间: 09:56 (07:56 UTC)

预报

该预报发布于2小时和56分钟前的05:00 UTC
预报有效从10日的 06点(UTC)到 11日的 06点(UTC)
风速8节,风向东转东南
能见度10公里或以上
1500米以下无云,无积雨云
成为
从 10日的 10点(UTC)到 10日的 12点(UTC)
风速10节,风向
成为
从 10日的 16点(UTC)到 10日的 18点(UTC)
能見度: 5000
多云层高于1000英尺
阴天层高于4000英尺
小雨

TAF: LRTR 100500Z 1006/1106 12008KT CAVOK BECMG 1010/1012 35010KT BECMG 1016/1018 5000 -RA BKN010 OVC040

超过4000个机场的气象观测和天气预报(METAR&TAF报告)。

可查询的气象台以黄色和红色小点在地图上表示。

将鼠标移到小点上方,可查看气象台名称。

然后点击查看天气观测和预报。

如需切换地图:点击带黑十字的绿色按钮放大地图;点击带横线的绿色按钮缩小地图;或者点击绿色箭头查看邻近地区的地图。


METAR-TAF: